Time;durP1;ratioP1;P1;durP2;ratioP2;P2;SDS_P1;SDS_P2;PMS_P1;PMS_P2;Temp;Humidity;BMP_temperature;BMP_pressure;BME280_temperature;BME280_humidity;BME280_pressure;Samples;Min_cycle;Max_cycle;Signal;HPM_P1;HPM_P2
2023/03/04 00:02:01;;;;;;;22.30;2.65;;;7.70;99.90;;;;;;5098693;28;20032;-75
2023/03/04 00:04:27;;;;;;;21.45;1.88;;;7.80;99.90;;;;;;5098706;28;20417;-76
2023/03/04 00:06:52;;;;;;;18.10;1.70;;;7.70;99.90;;;;;;5098187;28;20054;-76
2023/03/04 00:09:18;;;;;;;20.15;2.30;;;7.80;99.90;;;;;;5098410;28;20105;-76
2023/03/04 00:11:44;;;;;;;16.48;1.75;;;7.70;99.90;;;;;;5098197;28;20040;-76
2023/03/04 00:14:10;;;;;;;16.02;1.58;;;7.70;99.90;;;;;;5098575;28;20322;-75
2023/03/04 00:16:35;;;;;;;18.52;1.65;;;7.60;99.90;;;;;;5097051;28;20044;-75
2023/03/04 00:19:01;;;;;;;18.45;2.58;;;7.60;99.90;;;;;;5098069;28;20040;-76
2023/03/04 00:21:27;;;;;;;12.13;1.33;;;7.70;99.90;;;;;;5098112;28;20050;-75
2023/03/04 00:23:52;;;;;;;14.93;1.90;;;7.50;99.90;;;;;;5098257;28;20317;-75
2023/03/04 00:26:18;;;;;;;19.10;1.70;;;7.50;99.90;;;;;;5098045;28;20386;-75
2023/03/04 00:28:44;;;;;;;21.23;2.55;;;7.40;99.90;;;;;;5090211;28;20078;-76
2023/03/04 00:31:10;;;;;;;15.75;1.85;;;7.50;99.90;;;;;;5095907;28;20164;-76
2023/03/04 00:33:36;;;;;;;18.08;1.35;;;7.40;99.90;;;;;;5097520;28;20036;-76
2023/03/04 00:36:02;;;;;;;15.35;1.75;;;7.40;99.90;;;;;;5097450;28;20058;-75
2023/03/04 00:38:28;;;;;;;13.93;1.50;;;7.40;99.90;;;;;;5097760;28;20355;-75
2023/03/04 00:40:54;;;;;;;16.02;1.80;;;7.40;99.90;;;;;;5097808;28;20043;-76
2023/03/04 00:43:20;;;;;;;14.75;1.65;;;7.50;99.90;;;;;;5096754;28;20036;-75
2023/03/04 00:45:46;;;;;;;14.77;1.70;;;7.40;99.90;;;;;;5097363;28;20487;-75
2023/03/04 00:48:12;;;;;;;21.52;2.42;;;7.50;99.90;;;;;;5097869;28;20050;-76
2023/03/04 00:50:37;;;;;;;23.63;2.30;;;7.40;99.90;;;;;;5097521;28;20127;-75
2023/03/04 00:53:04;;;;;;;10.95;1.50;;;7.40;99.90;;;;;;5096378;28;20118;-75
2023/03/04 00:55:30;;;;;;;17.65;1.90;;;7.40;99.90;;;;;;5097488;28;20035;-76
2023/03/04 00:57:56;;;;;;;15.32;1.80;;;7.20;99.90;;;;;;5097403;28;20483;-75
2023/03/04 01:00:22;;;;;;;15.27;1.20;;;7.30;99.90;;;;;;5097099;28;20068;-76
2023/03/04 01:02:47;;;;;;;13.95;1.23;;;7.40;99.90;;;;;;5097056;28;20044;-76
2023/03/04 01:05:13;;;;;;;11.88;1.55;;;7.50;99.90;;;;;;5097443;28;20110;-75
2023/03/04 01:07:39;;;;;;;11.15;2.10;;;7.60;99.90;;;;;;5097229;28;20056;-76
2023/03/04 01:10:07;;;;;;;19.20;2.33;;;7.50;99.90;;;;;;5097358;28;20036;-75
2023/03/04 01:12:33;;;;;;;13.75;1.65;;;7.60;99.90;;;;;;5096993;28;20447;-75
2023/03/04 01:14:59;;;;;;;17.73;2.33;;;7.60;99.90;;;;;;5097506;28;20047;-76
2023/03/04 01:17:24;;;;;;;16.33;1.70;;;7.40;99.90;;;;;;5097377;28;20595;-75
2023/03/04 01:19:50;;;;;;;14.55;1.65;;;7.40;99.90;;;;;;5096137;28;20051;-76
2023/03/04 01:22:17;;;;;;;18.73;1.98;;;7.30;99.90;;;;;;5096353;28;20110;-76
2023/03/04 01:24:44;;;;;;;26.10;2.97;;;7.30;99.90;;;;;;5096992;28;20443;-76
2023/03/04 01:27:09;;;;;;;19.20;1.90;;;7.20;99.90;;;;;;5096925;28;20036;-75
2023/03/04 01:29:35;;;;;;;18.83;1.95;;;7.20;99.90;;;;;;5096636;28;20066;-76
2023/03/04 01:32:01;;;;;;;20.17;2.22;;;7.30;99.90;;;;;;5097145;28;20306;-76
2023/03/04 01:34:26;;;;;;;17.40;2.22;;;7.30;99.90;;;;;;5097111;28;20032;-75
2023/03/04 01:36:52;;;;;;;11.98;2.17;;;7.20;99.90;;;;;;5096892;28;20043;-75
2023/03/04 01:39:18;;;;;;;15.48;1.90;;;7.20;99.90;;;;;;5097081;28;20028;-75
2023/03/04 01:41:44;;;;;;;19.58;2.17;;;7.10;99.90;;;;;;5097193;28;20439;-75
2023/03/04 01:44:10;;;;;;;15.75;1.85;;;7.20;99.90;;;;;;5097406;28;20322;-75
2023/03/04 01:46:37;;;;;;;16.95;1.70;;;7.20;99.90;;;;;;5096960;28;20035;-75
2023/03/04 01:49:05;;;;;;;12.45;1.45;;;7.30;99.90;;;;;;5096048;28;20406;-76
2023/03/04 01:51:30;;;;;;;17.92;2.20;;;7.30;99.90;;;;;;5095698;28;20051;-75
2023/03/04 01:53:56;;;;;;;16.73;2.20;;;7.40;99.90;;;;;;5096988;28;20040;-75
2023/03/04 01:56:25;;;;;;;16.95;1.70;;;7.50;99.90;;;;;;5096633;28;20329;-75
2023/03/04 01:59:11;;;;;;;14.68;1.50;;;7.40;99.90;;;;;;5096427;28;20043;-76
2023/03/04 02:01:38;;;;;;;28.08;2.28;;;7.40;99.90;;;;;;5096042;28;20430;-75
2023/03/04 02:04:05;;;;;;;13.23;2.25;;;7.20;99.90;;;;;;5097014;28;20043;-75
2023/03/04 02:06:31;;;;;;;16.52;1.90;;;7.30;99.90;;;;;;5095505;28;20052;-75
2023/03/04 02:08:57;;;;;;;19.33;2.33;;;7.20;99.90;;;;;;5096503;28;20137;-76
2023/03/04 02:11:23;;;;;;;12.93;2.60;;;7.40;99.90;;;;;;5096836;28;20040;-76
2023/03/04 02:13:48;;;;;;;14.93;1.70;;;7.30;99.90;;;;;;5096799;28;20369;-75
2023/03/04 02:16:14;;;;;;;20.13;1.38;;;7.30;99.90;;;;;;5096774;28;20076;-76
2023/03/04 02:18:40;;;;;;;19.55;1.80;;;7.40;99.90;;;;;;5096625;28;20418;-76
2023/03/04 02:21:22;;;;;;;16.92;1.80;;;7.40;99.90;;;;;;5096382;28;20036;-75
2023/03/04 02:23:50;;;;;;;20.92;1.92;;;7.50;99.90;;;;;;5096841;28;20040;-76
2023/03/04 02:26:21;;;;;;;13.80;2.00;;;7.40;99.90;;;;;;5096657;28;20040;-76
2023/03/04 02:28:49;;;;;;;15.73;1.83;;;7.40;99.90;;;;;;5096185;28;20318;-76
2023/03/04 02:31:38;;;;;;;14.60;1.88;;;7.40;99.90;;;;;;5096482;28;20072;-75
2023/03/04 02:34:15;;;;;;;20.60;2.55;;;7.40;99.90;;;;;;5098377;28;20036;-76
2023/03/04 02:36:42;;;;;;;20.85;2.10;;;7.40;99.90;;;;;;5100309;28;20054;-75
2023/03/04 02:39:20;;;;;;;12.82;2.13;;;7.40;99.90;;;;;;5100203;28;20044;-75
2023/03/04 02:41:47;;;;;;;22.77;1.75;;;7.40;99.90;;;;;;5100044;28;20051;-76
2023/03/04 02:44:22;;;;;;;10.93;1.65;;;7.30;99.90;;;;;;5098910;28;20043;-75
2023/03/04 02:46:49;;;;;;;25.10;1.83;;;7.40;99.90;;;;;;5099818;28;20056;-75
2023/03/04 02:49:16;;;;;;;14.40;1.90;;;7.50;99.90;;;;;;5099784;28;20058;-76
2023/03/04 02:51:42;;;;;;;15.07;1.65;;;7.50;99.90;;;;;;5098615;28;20036;-76
2023/03/04 02:54:19;;;;;;;12.98;1.58;;;7.40;99.90;;;;;;5099889;28;20123;-75
2023/03/04 02:56:50;;;;;;;12.10;1.27;;;7.40;99.90;;;;;;5099801;28;20083;-75
2023/03/04 02:59:17;;;;;;;15.57;2.20;;;7.40;99.90;;;;;;5099117;28;20040;-76
2023/03/04 03:01:43;;;;;;;17.05;2.10;;;7.50;99.90;;;;;;5099836;28;20038;-76
2023/03/04 03:04:09;;;;;;;19.17;1.80;;;7.50;99.90;;;;;;5098593;28;20115;-75
2023/03/04 03:06:35;;;;;;;13.27;1.65;;;7.40;99.90;;;;;;5099491;28;20052;-75
2023/03/04 03:09:01;;;;;;;10.85;1.60;;;7.30;99.90;;;;;;5099339;28;20341;-75
2023/03/04 03:11:26;;;;;;;13.98;1.88;;;7.30;99.90;;;;;;5099513;28;20047;-76
2023/03/04 03:13:52;;;;;;;16.35;2.00;;;7.50;99.90;;;;;;5099337;28;20040;-76
2023/03/04 03:16:18;;;;;;;14.35;2.08;;;7.50;99.90;;;;;;5099338;28;20036;-76
2023/03/04 03:18:43;;;;;;;15.23;1.50;;;7.40;99.90;;;;;;5099385;28;20040;-75
2023/03/04 03:21:09;;;;;;;15.05;1.55;;;7.40;99.90;;;;;;5099265;28;20333;-75
2023/03/04 03:23:35;;;;;;;16.95;1.83;;;7.40;99.90;;;;;;5099309;28;20036;-75
2023/03/04 03:26:01;;;;;;;15.27;1.33;;;7.30;99.90;;;;;;5099136;28;20040;-75
2023/03/04 03:28:27;;;;;;;17.17;2.47;;;7.40;99.90;;;;;;5098525;28;20109;-76
2023/03/04 03:30:53;;;;;;;19.77;1.50;;;7.40;99.90;;;;;;5099190;28;20044;-75
2023/03/04 03:33:19;;;;;;;17.38;1.83;;;7.40;99.90;;;;;;5099098;28;20036;-76
2023/03/04 03:35:45;;;;;;;15.88;1.58;;;7.50;99.90;;;;;;5098757;28;20130;-75
2023/03/04 03:38:11;;;;;;;12.73;1.58;;;7.50;99.90;;;;;;5097610;28;20044;-76
2023/03/04 03:40:36;;;;;;;8.73;1.13;;;7.50;99.90;;;;;;5097692;28;20040;-76
2023/03/04 03:43:03;;;;;;;14.68;2.00;;;7.50;99.90;;;;;;5098870;28;20040;-75
2023/03/04 03:45:28;;;;;;;14.23;1.40;;;7.60;99.90;;;;;;5097235;28;20325;-76
2023/03/04 03:47:54;;;;;;;16.33;1.60;;;7.70;99.90;;;;;;5098672;28;20040;-75
2023/03/04 03:50:20;;;;;;;13.43;1.65;;;7.60;99.90;;;;;;5098577;28;20116;-76
2023/03/04 03:52:45;;;;;;;13.68;1.50;;;7.60;99.90;;;;;;5098778;28;20032;-75
2023/03/04 03:55:11;;;;;;;12.57;1.67;;;7.50;99.90;;;;;;5098609;28;20417;-75
2023/03/04 03:57:37;;;;;;;8.98;1.58;;;7.50;99.90;;;;;;5097543;28;20044;-75
2023/03/04 04:00:04;;;;;;;14.30;1.60;;;7.60;99.90;;;;;;5096937;28;20123;-76
2023/03/04 04:02:31;;;;;;;10.38;1.30;;;7.60;99.90;;;;;;5098352;28;20097;-75
2023/03/04 04:04:57;;;;;;;17.45;1.50;;;7.50;99.90;;;;;;5097659;28;20047;-75
2023/03/04 04:07:23;;;;;;;15.60;1.63;;;7.50;99.90;;;;;;5097083;28;20048;-75
2023/03/04 04:09:49;;;;;;;9.52;1.13;;;7.60;99.90;;;;;;5098514;28;20123;-75
2023/03/04 04:12:17;;;;;;;10.55;1.48;;;7.60;99.90;;;;;;5098306;28;20047;-76
2023/03/04 04:14:43;;;;;;;10.77;1.40;;;7.60;99.90;;;;;;5098122;28;20128;-76
2023/03/04 04:17:10;;;;;;;13.13;1.50;;;7.50;99.90;;;;;;5098262;28;20123;-76
2023/03/04 04:19:36;;;;;;;13.75;1.23;;;7.50;99.90;;;;;;5098201;28;20071;-75
2023/03/04 04:22:02;;;;;;;13.95;1.80;;;7.60;99.90;;;;;;5098288;28;20032;-75
2023/03/04 04:24:28;;;;;;;9.50;1.60;;;7.70;99.90;;;;;;5098444;28;20036;-75
2023/03/04 04:26:54;;;;;;;12.50;1.65;;;7.70;99.90;;;;;;5098230;28;20118;-75
2023/03/04 04:29:20;;;;;;;12.30;1.45;;;7.60;99.90;;;;;;5097665;28;20036;-76
2023/03/04 04:31:45;;;;;;;13.63;1.35;;;7.70;99.90;;;;;;5098095;28;20080;-75
2023/03/04 04:34:11;;;;;;;11.55;1.80;;;7.80;99.90;;;;;;5098013;28;20043;-75
2023/03/04 04:36:36;;;;;;;11.98;1.40;;;7.70;99.90;;;;;;5097825;28;20417;-76
2023/03/04 04:39:03;;;;;;;13.23;1.40;;;7.70;99.90;;;;;;5097030;28;20376;-76
2023/03/04 04:41:33;;;;;;;12.93;1.60;;;7.60;99.90;;;;;;5097586;28;20417;-76
2023/03/04 04:43:59;;;;;;;7.88;1.25;;;7.60;99.90;;;;;;5097776;28;20119;-75
2023/03/04 04:46:25;;;;;;;18.13;2.20;;;7.60;99.90;;;;;;5097404;28;20398;-76
2023/03/04 04:48:51;;;;;;;16.23;1.45;;;7.50;99.90;;;;;;5097751;28;20053;-75
2023/03/04 04:51:17;;;;;;;11.73;1.33;;;7.50;99.90;;;;;;5097358;28;20425;-76
2023/03/04 04:53:43;;;;;;;16.88;2.47;;;7.60;99.90;;;;;;5096948;28;20089;-76
2023/03/04 04:56:20;;;;;;;16.75;1.40;;;7.60;99.90;;;;;;5096801;28;20486;-76
2023/03/04 04:58:47;;;;;;;17.67;1.23;;;7.60;99.90;;;;;;5095953;28;20036;-76
2023/03/04 05:01:13;;;;;;;16.55;1.50;;;7.70;99.90;;;;;;5097151;28;20031;-75
2023/03/04 05:03:40;;;;;;;11.57;1.40;;;7.60;99.90;;;;;;5097061;28;20043;-76
2023/03/04 05:06:08;;;;;;;11.45;1.52;;;7.60;99.90;;;;;;5097060;28;20113;-75
2023/03/04 05:08:34;;;;;;;13.43;2.28;;;7.60;99.90;;;;;;5097189;28;20077;-75
2023/03/04 05:11:00;;;;;;;10.27;1.67;;;7.70;99.90;;;;;;5097263;28;20043;-75
2023/03/04 05:13:27;;;;;;;16.95;1.50;;;7.70;99.90;;;;;;5097289;28;20133;-76
2023/03/04 05:15:54;;;;;;;13.48;1.45;;;7.70;99.90;;;;;;5097221;28;20050;-76
2023/03/04 05:18:20;;;;;;;13.02;1.80;;;7.50;99.90;;;;;;5097260;28;20040;-75
2023/03/04 05:20:53;;;;;;;15.23;1.83;;;7.40;99.90;;;;;;5097184;28;20075;-75
2023/03/04 05:23:19;;;;;;;16.25;1.80;;;7.30;99.90;;;;;;5096172;28;20051;-75
2023/03/04 05:25:45;;;;;;;15.63;2.20;;;7.30;99.90;;;;;;5097281;28;20040;-76
2023/03/04 05:28:11;;;;;;;7.32;1.52;;;7.40;99.90;;;;;;5097077;28;20120;-76
2023/03/04 05:30:39;;;;;;;13.98;2.33;;;7.40;99.90;;;;;;5096818;28;20071;-76
2023/03/04 05:33:07;;;;;;;10.88;1.83;;;7.30;99.90;;;;;;5097078;28;20040;-76
2023/03/04 05:35:34;;;;;;;12.27;2.35;;;7.10;99.90;;;;;;5095756;28;20491;-76
2023/03/04 05:38:00;;;;;;;10.63;1.90;;;7.10;99.90;;;;;;5095512;28;20420;-76
2023/03/04 05:40:26;;;;;;;11.88;2.47;;;7.10;99.90;;;;;;5096941;28;20044;-75
2023/03/04 05:42:51;;;;;;;13.93;2.58;;;7.10;99.90;;;;;;5097000;28;20113;-76
2023/03/04 05:45:17;;;;;;;15.93;2.20;;;7.10;99.90;;;;;;5096965;28;20119;-76
2023/03/04 05:47:43;;;;;;;16.17;2.42;;;7.10;99.90;;;;;;5096882;28;20047;-76
2023/03/04 05:50:09;;;;;;;15.45;2.50;;;7.20;99.90;;;;;;5095729;28;20047;-76
2023/03/04 05:52:35;;;;;;;20.40;2.60;;;7.30;99.90;;;;;;5095827;28;20047;-76
2023/03/04 05:55:00;;;;;;;12.93;2.85;;;7.30;99.90;;;;;;5096837;28;20378;-76
2023/03/04 05:57:26;;;;;;;14.35;2.28;;;7.30;99.90;;;;;;5096553;28;20051;-75
2023/03/04 05:59:52;;;;;;;14.75;2.20;;;7.30;99.90;;;;;;5096085;28;20077;-76
2023/03/04 06:02:17;;;;;;;27.95;2.75;;;7.20;99.90;;;;;;5096739;28;20041;-75
2023/03/04 06:04:43;;;;;;;14.07;2.60;;;7.20;99.90;;;;;;5095825;28;20043;-75
2023/03/04 06:07:09;;;;;;;21.75;2.80;;;7.10;99.90;;;;;;5096538;28;20504;-75
2023/03/04 06:09:34;;;;;;;14.25;2.60;;;7.20;99.90;;;;;;5099964;28;20429;-75
2023/03/04 06:12:00;;;;;;;16.20;2.53;;;7.10;99.90;;;;;;5099338;28;20044;-75
2023/03/04 06:14:26;;;;;;;17.90;2.95;;;7.10;99.90;;;;;;5100692;28;20074;-75
2023/03/04 06:16:51;;;;;;;13.63;2.20;;;7.10;99.90;;;;;;5099251;28;20040;-75
2023/03/04 06:19:17;;;;;;;11.38;2.65;;;7.10;99.90;;;;;;5100231;28;20036;-75
2023/03/04 06:21:43;;;;;;;8.30;2.22;;;7.00;99.90;;;;;;5100190;28;20123;-76
2023/03/04 06:24:08;;;;;;;20.48;3.35;;;7.00;99.90;;;;;;5100471;28;20127;-75
2023/03/04 06:26:34;;;;;;;10.77;2.53;;;7.10;99.90;;;;;;5100345;28;20039;-76
2023/03/04 06:29:00;;;;;;;10.95;2.40;;;7.10;99.90;;;;;;5099525;28;20043;-76
2023/03/04 06:31:25;;;;;;;16.67;2.58;;;7.00;99.90;;;;;;5100249;28;20115;-75
2023/03/04 06:33:51;;;;;;;14.32;2.42;;;7.10;99.90;;;;;;5099209;28;20099;-75
2023/03/04 06:36:17;;;;;;;15.50;2.78;;;7.10;99.90;;;;;;5099938;28;20036;-76
2023/03/04 06:38:42;;;;;;;20.73;2.92;;;7.10;99.90;;;;;;5098704;28;20040;-76
2023/03/04 06:41:10;;;;;;;13.48;2.22;;;7.10;99.90;;;;;;5100183;28;20036;-76
2023/03/04 06:43:36;;;;;;;15.57;2.60;;;7.00;99.90;;;;;;5099001;28;20051;-76
2023/03/04 06:46:02;;;;;;;9.93;2.30;;;7.20;99.90;;;;;;5099940;28;20497;-76
2023/03/04 06:48:28;;;;;;;14.20;2.60;;;7.20;99.90;;;;;;5100048;28;20150;-76
2023/03/04 06:50:54;;;;;;;19.85;2.70;;;7.20;99.90;;;;;;5100039;28;20417;-75
2023/03/04 06:53:19;;;;;;;14.75;2.38;;;7.10;99.90;;;;;;5099551;28;20047;-76
2023/03/04 06:55:46;;;;;;;12.10;2.13;;;7.20;99.90;;;;;;5099670;28;20040;-76
2023/03/04 06:58:12;;;;;;;14.65;2.70;;;7.20;99.90;;;;;;5099670;28;20044;-76
2023/03/04 07:00:38;;;;;;;13.63;2.63;;;7.20;99.90;;;;;;5099289;28;20047;-76
2023/03/04 07:03:03;;;;;;;17.10;2.30;;;7.20;99.90;;;;;;5099670;28;20032;-76
2023/03/04 07:05:29;;;;;;;17.77;2.67;;;7.30;99.90;;;;;;5099617;28;20414;-76
2023/03/04 07:07:55;;;;;;;11.60;2.33;;;7.30;99.90;;;;;;5099258;28;20064;-76
2023/03/04 07:10:21;;;;;;;16.15;2.70;;;7.20;99.90;;;;;;5099276;28;20039;-75
2023/03/04 07:12:46;;;;;;;20.25;2.65;;;7.20;99.90;;;;;;5099256;28;20040;-76
2023/03/04 07:15:12;;;;;;;15.63;2.55;;;7.10;99.90;;;;;;5099541;28;20078;-76
2023/03/04 07:17:38;;;;;;;20.17;2.95;;;7.20;99.90;;;;;;5099308;28;20329;-76
2023/03/04 07:20:04;;;;;;;15.30;2.35;;;7.20;99.90;;;;;;5098462;28;20032;-76
2023/03/04 07:22:30;;;;;;;10.10;2.75;;;7.30;99.90;;;;;;5099259;28;20385;-76
2023/03/04 07:24:56;;;;;;;18.50;2.83;;;7.30;99.90;;;;;;5098977;28;20071;-76
2023/03/04 07:27:21;;;;;;;14.30;3.05;;;7.20;99.90;;;;;;5099070;28;20046;-76
2023/03/04 07:29:47;;;;;;;15.00;2.60;;;7.30;99.90;;;;;;5098765;28;20047;-76
2023/03/04 07:32:13;;;;;;;14.68;2.42;;;7.30;99.90;;;;;;5099172;28;20474;-76
2023/03/04 07:34:38;;;;;;;10.60;2.22;;;7.10;99.90;;;;;;5099103;28;20383;-75
2023/03/04 07:37:04;;;;;;;11.70;2.20;;;7.10;99.90;;;;;;5098762;28;20047;-76
2023/03/04 07:39:30;;;;;;;12.57;2.88;;;7.10;99.90;;;;;;5099121;28;20028;-76
2023/03/04 07:41:55;;;;;;;13.50;2.53;;;7.30;99.90;;;;;;5098825;28;20032;-76
2023/03/04 07:44:21;;;;;;;13.25;2.70;;;7.40;99.90;;;;;;5098830;28;20043;-76
2023/03/04 07:46:47;;;;;;;8.50;2.58;;;7.40;99.90;;;;;;5098713;28;20307;-75
2023/03/04 07:49:13;;;;;;;19.75;2.75;;;7.40;99.90;;;;;;5098667;28;20036;-76
2023/03/04 07:51:39;;;;;;;10.02;3.08;;;7.30;99.90;;;;;;5098671;28;20044;-76
2023/03/04 07:54:04;;;;;;;17.15;3.28;;;7.30;99.90;;;;;;5098668;28;20089;-76
2023/03/04 07:56:33;;;;;;;21.50;4.43;;;7.50;99.90;;;;;;5098175;28;20036;-76
2023/03/04 07:58:59;;;;;;;22.42;3.55;;;7.50;99.90;;;;;;5098109;28;20048;-76
2023/03/04 08:01:34;;;;;;;15.27;3.42;;;7.50;99.90;;;;;;5098546;28;20117;-76
2023/03/04 08:04:00;;;;;;;21.85;3.60;;;7.40;99.90;;;;;;5098226;28;20036;-76
2023/03/04 08:06:27;;;;;;;23.45;4.75;;;7.50;99.90;;;;;;5098089;28;20094;-75
2023/03/04 08:08:58;;;;;;;29.08;4.07;;;7.40;99.90;;;;;;5098376;28;20044;-76
2023/03/04 08:11:24;;;;;;;28.45;4.95;;;7.30;99.90;;;;;;5097088;28;20048;-76
2023/03/04 08:13:52;;;;;;;27.27;4.38;;;7.10;99.90;;;;;;5098440;28;20076;-76
2023/03/04 08:16:19;;;;;;;23.60;4.30;;;7.10;99.90;;;;;;5098109;28;20062;-76
2023/03/04 08:18:47;;;;;;;33.55;4.32;;;7.20;99.90;;;;;;5097662;28;20462;-76
2023/03/04 08:21:14;;;;;;;28.75;4.95;;;7.20;99.90;;;;;;5098092;28;20036;-75
2023/03/04 08:23:41;;;;;;;30.88;5.22;;;7.20;99.90;;;;;;5097655;28;20075;-75
2023/03/04 08:26:20;;;;;;;26.80;4.47;;;7.30;99.90;;;;;;5097014;28;20028;-76
2023/03/04 08:28:46;;;;;;;31.52;4.07;;;7.40;99.90;;;;;;5097479;28;20425;-76
2023/03/04 08:31:13;;;;;;;40.25;4.85;;;7.40;99.90;;;;;;5096449;28;20121;-75
2023/03/04 08:33:39;;;;;;;36.70;4.95;;;7.50;99.90;;;;;;5097845;28;20047;-75
2023/03/04 08:36:05;;;;;;;36.25;5.53;;;7.50;99.90;;;;;;5097906;28;20035;-76
2023/03/04 08:38:31;;;;;;;24.90;4.20;;;7.50;99.90;;;;;;5097707;28;20052;-76
2023/03/04 08:40:57;;;;;;;34.95;5.10;;;7.50;99.90;;;;;;5097573;28;20044;-76
2023/03/04 08:43:24;;;;;;;30.75;4.82;;;7.50;99.90;;;;;;5097319;28;20497;-76
2023/03/04 08:45:51;;;;;;;24.42;3.90;;;7.60;99.90;;;;;;5097530;28;20047;-76
2023/03/04 08:48:17;;;;;;;24.90;3.80;;;7.60;99.90;;;;;;5097576;28;20321;-75
2023/03/04 08:50:44;;;;;;;39.10;3.75;;;7.60;99.90;;;;;;5097214;28;20074;-80
2023/03/04 08:53:11;;;;;;;31.85;4.32;;;7.50;99.90;;;;;;5097475;28;20041;-69
2023/03/04 08:55:38;;;;;;;31.20;4.00;;;7.40;99.90;;;;;;5097290;28;20036;-68
2023/03/04 08:58:05;;;;;;;30.45;4.93;;;7.40;99.90;;;;;;5095909;28;20508;-69
2023/03/04 09:00:32;;;;;;;34.97;4.72;;;7.40;99.90;;;;;;5095471;28;20323;-68
2023/03/04 09:02:58;;;;;;;27.70;3.90;;;7.50;99.90;;;;;;5096925;28;20461;-69
2023/03/04 09:05:23;;;;;;;33.92;4.20;;;7.60;99.90;;;;;;5097221;28;20050;-70
2023/03/04 09:07:49;;;;;;;27.27;4.38;;;7.60;99.90;;;;;;5096666;28;20353;-70
2023/03/04 09:10:15;;;;;;;26.98;3.47;;;7.50;99.90;;;;;;5096149;28;20079;-70
2023/03/04 09:12:40;;;;;;;29.85;3.00;;;7.50;99.90;;;;;;5097078;28;20420;-70
2023/03/04 09:15:07;;;;;;;29.65;4.10;;;7.40;99.90;;;;;;5096722;28;20043;-70
2023/03/04 09:17:33;;;;;;;31.88;4.28;;;7.60;99.90;;;;;;5096896;28;20075;-70
2023/03/04 09:19:58;;;;;;;26.77;4.13;;;7.70;99.90;;;;;;5097023;28;20071;-70
2023/03/04 09:22:24;;;;;;;16.63;2.33;;;7.60;99.90;;;;;;5097000;28;20452;-70
2023/03/04 09:24:49;;;;;;;16.63;1.67;;;7.60;99.90;;;;;;5096952;28;20063;-70
2023/03/04 09:27:15;;;;;;;24.05;3.03;;;7.50;99.90;;;;;;5096938;28;20040;-70
2023/03/04 09:29:43;;;;;;;14.00;2.20;;;7.40;99.90;;;;;;5095438;28;20054;-70
2023/03/04 09:32:09;;;;;;;18.98;2.00;;;7.30;99.90;;;;;;5096608;28;20048;-70
2023/03/04 09:34:34;;;;;;;15.77;2.22;;;7.40;99.90;;;;;;5096891;28;20087;-70
2023/03/04 09:37:00;;;;;;;14.02;1.55;;;7.40;99.90;;;;;;5096469;28;20123;-70
2023/03/04 09:39:26;;;;;;;20.05;1.67;;;7.40;99.90;;;;;;5096876;28;20063;-70
2023/03/04 09:41:56;;;;;;;17.00;1.83;;;7.50;99.90;;;;;;5096427;28;20345;-70
2023/03/04 09:44:27;;;;;;;13.32;1.35;;;7.50;99.90;;;;;;5099026;28;20115;-70
2023/03/04 09:46:57;;;;;;;10.00;1.92;;;7.30;99.90;;;;;;5100645;28;20043;-70
2023/03/04 09:49:23;;;;;;;15.85;1.50;;;7.40;99.90;;;;;;5100941;28;20107;-70
2023/03/04 09:51:56;;;;;;;14.05;1.98;;;7.40;99.90;;;;;;5099124;28;20043;-70
2023/03/04 09:54:27;;;;;;;10.48;1.83;;;7.50;99.90;;;;;;5097785;28;20149;-70
2023/03/04 09:57:18;;;;;;;14.63;1.50;;;7.60;99.90;;;;;;5100053;28;20421;-73
2023/03/04 10:00:00;;;;;;;13.35;1.83;;;7.80;99.90;;;;;;5068494;28;20044;-69
2023/03/04 10:02:50;;;;;;;11.88;1.50;;;7.70;99.90;;;;;;5080226;28;20040;-70
2023/03/04 10:05:23;;;;;;;13.88;2.08;;;7.80;99.90;;;;;;5080160;28;20408;-69
2023/03/04 10:07:56;;;;;;;16.20;1.73;;;8.00;99.90;;;;;;5079625;28;20052;-69
2023/03/04 10:10:32;;;;;;;20.55;1.67;;;8.00;99.90;;;;;;5080066;28;20040;-70
2023/03/04 10:13:00;;;;;;;17.30;1.70;;;7.90;99.90;;;;;;5079974;28;20056;-69
2023/03/04 10:15:38;;;;;;;16.05;1.50;;;7.90;99.90;;;;;;5099151;28;20115;-70
2023/03/04 10:18:21;;;;;;;26.98;2.00;;;7.90;99.90;;;;;;5100272;28;20071;-71
2023/03/04 10:21:13;;;;;;;23.23;2.50;;;7.60;99.90;;;;;;5100313;28;20119;-70
2023/03/04 10:23:40;;;;;;;17.42;2.20;;;7.60;99.90;;;;;;5100216;28;20147;-70
2023/03/04 10:26:15;;;;;;;21.42;2.40;;;7.70;99.90;;;;;;5099084;28;20036;-70
2023/03/04 10:28:41;;;;;;;18.63;1.97;;;7.80;99.90;;;;;;5097369;28;20036;-70
2023/03/04 10:31:07;;;;;;;17.25;2.90;;;8.10;99.90;;;;;;5081284;28;20462;-70
2023/03/04 10:33:35;;;;;;;19.77;2.58;;;8.20;99.90;;;;;;5099858;28;20046;-71
2023/03/04 10:36:05;;;;;;;18.30;2.72;;;8.50;99.90;;;;;;5099826;28;20055;-73
2023/03/04 10:38:33;;;;;;;16.02;2.80;;;8.30;99.90;;;;;;5093480;28;20044;-70
2023/03/04 10:41:00;;;;;;;20.50;2.13;;;8.40;99.90;;;;;;5098655;28;20036;-70
2023/03/04 10:43:26;;;;;;;27.35;2.47;;;8.50;99.90;;;;;;5099711;28;20309;-70
2023/03/04 10:45:57;;;;;;;22.48;3.05;;;8.40;99.90;;;;;;5099655;28;20040;-70
2023/03/04 10:48:30;;;;;;;19.15;3.05;;;8.20;99.90;;;;;;5099196;28;20085;-70
2023/03/04 10:51:21;;;;;;;21.63;2.60;;;7.90;99.90;;;;;;5098960;28;20047;-70
2023/03/04 10:53:51;;;;;;;23.83;2.92;;;7.90;99.90;;;;;;5099320;28;20077;-71
2023/03/04 10:56:30;;;;;;;15.77;1.95;;;7.70;99.90;;;;;;5099057;28;20429;-70
2023/03/04 10:59:22;;;;;;;17.45;3.67;;;7.80;99.90;;;;;;5099026;28;20044;-70
2023/03/04 11:01:50;;;;;;;14.60;2.20;;;8.00;99.90;;;;;;5098888;28;20456;-70
2023/03/04 11:04:22;;;;;;;18.55;2.35;;;8.10;99.90;;;;;;5096585;28;20036;-70
2023/03/04 11:06:48;;;;;;;21.42;2.70;;;8.10;99.90;;;;;;5098923;28;20048;-70
2023/03/04 11:09:29;;;;;;;25.10;2.97;;;8.00;99.90;;;;;;5099302;28;20055;-69
2023/03/04 11:11:59;;;;;;;18.85;2.50;;;8.20;99.90;;;;;;5099313;28;20040;-69
2023/03/04 11:14:41;;;;;;;14.70;2.30;;;8.30;99.90;;;;;;5099963;28;20067;-69
2023/03/04 11:17:47;;;;;;;17.95;3.17;;;8.20;99.90;;;;;;5099181;28;20321;-69
2023/03/04 11:20:23;;;;;;;19.25;3.70;;;7.90;99.90;;;;;;5097525;28;20081;-69
2023/03/04 11:22:51;;;;;;;15.48;2.45;;;7.90;99.90;;;;;;5099128;28;20040;-69
2023/03/04 11:25:29;;;;;;;18.15;2.10;;;7.90;99.90;;;;;;5098745;28;20072;-69
2023/03/04 11:28:02;;;;;;;15.10;2.63;;;7.70;99.90;;;;;;5097478;28;20118;-70
2023/03/04 11:30:50;;;;;;;19.08;1.83;;;7.80;99.90;;;;;;5098499;28;20087;-70
2023/03/04 11:33:27;;;;;;;13.95;1.77;;;7.90;99.90;;;;;;5097458;28;20127;-71
2023/03/04 11:35:57;;;;;;;18.52;2.55;;;8.10;99.90;;;;;;5098437;28;20040;-71
2023/03/04 11:38:34;;;;;;;15.95;2.13;;;8.30;99.90;;;;;;5098936;28;20043;-71
2023/03/04 11:41:08;;;;;;;18.48;2.42;;;8.50;99.90;;;;;;5098651;28;20036;-71
2023/03/04 11:43:36;;;;;;;20.58;2.38;;;8.40;99.90;;;;;;5098661;28;20072;-71
2023/03/04 11:46:30;;;;;;;20.77;2.65;;;8.30;99.90;;;;;;5098532;28;20040;-71
2023/03/04 11:49:26;;;;;;;22.90;2.20;;;8.30;99.90;;;;;;5098291;28;20377;-70
2023/03/04 11:52:13;;;;;;;17.35;3.10;;;8.40;99.90;;;;;;5098188;28;20404;-70
2023/03/04 11:55:10;;;;;;;16.85;2.47;;;8.60;99.90;;;;;;5098490;28;20106;-71
2023/03/04 11:57:48;;;;;;;;;;;9.10;99.90;;;;;;5098861;28;20052;-73
2023/03/04 12:00:17;;;;;;;16.60;1.95;;;9.50;99.90;;;;;;5079824;28;19966;-71
2023/03/04 12:02:47;;;;;;;19.92;2.53;;;9.50;99.90;;;;;;5097955;28;20123;-71
2023/03/04 12:05:18;;;;;;;16.48;1.90;;;9.90;99.90;;;;;;5097957;28;20422;-71
2023/03/04 12:08:16;;;;;;;19.63;2.38;;;10.00;99.90;;;;;;5097367;28;20448;-71
2023/03/04 12:11:00;;;;;;;16.67;2.58;;;9.90;99.90;;;;;;5078489;28;20055;-70
2023/03/04 12:13:35;;;;;;;16.50;2.45;;;9.30;99.90;;;;;;5098336;28;20040;-71
2023/03/04 12:16:09;;;;;;;18.02;1.83;;;9.50;99.90;;;;;;5096897;28;20445;-77
2023/03/04 12:18:44;;;;;;;14.93;1.95;;;9.70;99.90;;;;;;5097128;28;20048;-78
2023/03/04 12:21:32;;;;;;;24.25;2.28;;;9.70;99.90;;;;;;5097006;28;20399;-70
2023/03/04 12:24:07;;;;;;;15.57;2.65;;;9.60;99.90;;;;;;5097908;28;20074;-70
2023/03/04 12:26:57;;;;;;;24.55;3.30;;;9.30;99.90;;;;;;5097873;28;20318;-72
2023/03/04 12:29:50;;;;;;;18.25;2.53;;;9.00;99.90;;;;;;5097469;28;20385;-72
2023/03/04 12:32:33;;;;;;;14.95;1.80;;;8.70;99.90;;;;;;5097848;28;20372;-71
2023/03/04 12:35:39;;;;;;;26.52;2.85;;;8.60;99.90;;;;;;5097679;28;20315;-72
2023/03/04 12:38:19;;;;;;;18.50;2.33;;;8.50;99.90;;;;;;5097552;28;20048;-72
2023/03/04 12:41:00;;;;;;;23.65;2.70;;;8.60;99.90;;;;;;5097598;28;20307;-72
2023/03/04 12:43:35;;;;;;;21.33;2.42;;;8.80;99.90;;;;;;5097262;28;20047;-72
2023/03/04 12:46:03;;;;;;;23.65;2.42;;;8.90;99.90;;;;;;5097496;28;20032;-72
2023/03/04 12:48:45;;;;;;;15.30;2.60;;;9.30;99.90;;;;;;5097404;28;20044;-71
2023/03/04 12:51:29;;;;;;;16.50;1.90;;;9.10;99.90;;;;;;5097121;28;20044;-71
2023/03/04 12:54:09;;;;;;;17.80;2.10;;;9.50;99.90;;;;;;5097378;28;20044;-72
2023/03/04 12:56:45;;;;;;;16.52;2.08;;;10.00;99.90;;;;;;5096358;28;20092;-72
2023/03/04 12:59:19;;;;;;;14.02;2.08;;;10.30;99.90;;;;;;5096949;28;20051;-72